createdAt,value
2022-12-16T00:00:10.146Z,-1.80
2022-12-16T00:02:36.955Z,-1.80
2022-12-16T00:05:04.241Z,-1.80
2022-12-16T00:07:30.971Z,-1.80
2022-12-16T00:09:57.634Z,-1.80
2022-12-16T00:12:24.540Z,-1.80
2022-12-16T00:14:51.468Z,-1.80
2022-12-16T00:17:18.469Z,-1.80
2022-12-16T00:19:45.122Z,-1.70
2022-12-16T00:22:11.855Z,-1.70
2022-12-16T00:24:38.505Z,-1.70
2022-12-16T00:27:05.170Z,-1.80
2022-12-16T00:29:31.917Z,-1.70
2022-12-16T00:31:58.693Z,-1.70
2022-12-16T00:34:25.398Z,-1.80
2022-12-16T00:36:52.177Z,-1.80
2022-12-16T00:39:18.990Z,-1.80
2022-12-16T00:41:47.574Z,-1.80
2022-12-16T00:44:14.407Z,-1.70
2022-12-16T00:46:41.038Z,-1.80
2022-12-16T00:49:07.779Z,-1.70
2022-12-16T00:51:34.786Z,-1.80
2022-12-16T00:54:01.470Z,-1.70
2022-12-16T00:56:28.177Z,-1.80
2022-12-16T00:58:54.942Z,-1.80
2022-12-16T01:01:21.744Z,-1.80
2022-12-16T01:03:48.566Z,-1.80
2022-12-16T01:06:17.734Z,-1.70
2022-12-16T01:08:50.607Z,-1.70
2022-12-16T01:11:19.161Z,-1.70
2022-12-16T01:13:47.229Z,-1.70
2022-12-16T01:16:15.376Z,-1.70
2022-12-16T01:18:42.107Z,-1.80
2022-12-16T01:21:12.462Z,-1.80
2022-12-16T01:23:39.102Z,-1.70
2022-12-16T01:26:06.378Z,-1.80
2022-12-16T01:28:33.060Z,-1.80
2022-12-16T01:31:04.214Z,-1.80
2022-12-16T01:33:33.176Z,-1.80
2022-12-16T01:36:06.115Z,-1.90
2022-12-16T01:38:33.391Z,-1.80
2022-12-16T01:41:00.778Z,-1.80
2022-12-16T01:43:30.692Z,-1.80
2022-12-16T01:46:03.440Z,-1.70
2022-12-16T01:48:53.555Z,-1.80
2022-12-16T01:51:29.587Z,-1.80
2022-12-16T01:54:01.883Z,-1.70
2022-12-16T01:56:31.724Z,-1.70
2022-12-16T01:58:59.427Z,-1.80
2022-12-16T02:01:26.617Z,-1.80
2022-12-16T02:03:55.703Z,-1.80
2022-12-16T02:06:22.454Z,-1.80
2022-12-16T02:08:55.584Z,-1.70
2022-12-16T02:11:38.581Z,-1.80
2022-12-16T02:14:41.104Z,-1.80
2022-12-16T02:17:41.226Z,-1.80
2022-12-16T02:20:22.392Z,-1.80
2022-12-16T02:23:31.636Z,-1.80
2022-12-16T02:26:09.756Z,-1.70
2022-12-16T02:28:57.726Z,-1.80
2022-12-16T02:31:32.268Z,-1.80
2022-12-16T02:34:14.138Z,-1.80
2022-12-16T02:37:16.502Z,-1.70
2022-12-16T02:39:50.494Z,-1.70
2022-12-16T02:42:51.108Z,-1.70
2022-12-16T02:45:25.312Z,-1.80
2022-12-16T02:47:52.163Z,-1.70
2022-12-16T02:50:43.613Z,-1.80
2022-12-16T02:53:11.008Z,-1.60
2022-12-16T02:56:21.897Z,-1.60
2022-12-16T02:59:17.475Z,-1.60
2022-12-16T03:01:47.270Z,-1.70
2022-12-16T03:04:40.331Z,-1.70
2022-12-16T03:07:14.976Z,-1.60
2022-12-16T03:09:43.681Z,-1.70
2022-12-16T03:12:14.734Z,-1.60
2022-12-16T03:14:44.281Z,-1.60
2022-12-16T03:17:12.880Z,-1.60
2022-12-16T03:19:44.057Z,-1.60
2022-12-16T03:22:27.901Z,-1.60
2022-12-16T03:24:55.103Z,-1.60
2022-12-16T03:28:00.187Z,-1.70
2022-12-16T03:30:32.882Z,-1.60
2022-12-16T03:33:38.504Z,-1.70
2022-12-16T03:36:21.657Z,-1.70
2022-12-16T03:38:50.039Z,-1.70
2022-12-16T03:41:18.583Z,-1.70
2022-12-16T03:43:45.621Z,-1.80
2022-12-16T03:46:13.914Z,-1.70
2022-12-16T03:48:46.764Z,-1.80
2022-12-16T03:51:13.415Z,-1.80
2022-12-16T03:53:40.248Z,-1.90
2022-12-16T03:56:07.221Z,-1.80
2022-12-16T03:58:35.596Z,-1.90
2022-12-16T04:01:02.302Z,-1.90
2022-12-16T04:03:29.043Z,-1.90
2022-12-16T04:05:55.793Z,-2.00
2022-12-16T04:08:22.485Z,-2.00
2022-12-16T04:11:11.081Z,-2.10
2022-12-16T04:13:56.893Z,-2.10
2022-12-16T04:16:44.910Z,-2.20
2022-12-16T04:19:44.425Z,-2.20
2022-12-16T04:22:38.201Z,-2.20
2022-12-16T04:25:10.347Z,-2.40
2022-12-16T04:27:36.988Z,-2.40
2022-12-16T04:30:19.703Z,-2.40
2022-12-16T04:33:10.477Z,-2.50
2022-12-16T04:35:56.058Z,-2.60
2022-12-16T04:38:41.485Z,-2.50
2022-12-16T04:41:27.181Z,-2.60
2022-12-16T04:44:12.482Z,-2.70
2022-12-16T04:46:58.138Z,-2.80
2022-12-16T04:49:43.713Z,-2.80
2022-12-16T04:52:29.208Z,-2.80
2022-12-16T04:55:14.792Z,-3.00
2022-12-16T04:58:02.442Z,-3.10
2022-12-16T05:00:47.570Z,-3.20
2022-12-16T05:03:33.863Z,-3.20
2022-12-16T05:06:19.381Z,-3.30
2022-12-16T05:09:04.945Z,-3.30
2022-12-16T05:11:50.516Z,-3.40
2022-12-16T05:14:36.091Z,-3.50
2022-12-16T05:17:21.663Z,-3.40
2022-12-16T05:20:06.859Z,-3.60
2022-12-16T05:22:52.344Z,-3.60
2022-12-16T05:25:37.862Z,-3.60
2022-12-16T05:28:23.391Z,-3.60
2022-12-16T05:31:08.982Z,-3.70
2022-12-16T05:33:54.215Z,-3.70
2022-12-16T05:36:59.612Z,-3.50
2022-12-16T05:39:44.937Z,-3.80
2022-12-16T05:42:30.424Z,-3.70
2022-12-16T05:45:15.873Z,-3.90
2022-12-16T05:48:01.301Z,-4.00
2022-12-16T05:50:51.177Z,-4.10
2022-12-16T05:53:36.953Z,-4.20
2022-12-16T05:56:22.463Z,-4.20
2022-12-16T05:59:07.935Z,-4.20
2022-12-16T06:01:53.531Z,-4.30
2022-12-16T06:04:38.672Z,-4.30
2022-12-16T06:07:24.171Z,-4.30
2022-12-16T06:10:09.887Z,-4.50
2022-12-16T06:12:55.130Z,-4.50
2022-12-16T06:15:40.426Z,-4.50
2022-12-16T06:18:25.916Z,-4.50
2022-12-16T06:21:11.143Z,-4.50
2022-12-16T06:23:56.641Z,-4.60
2022-12-16T06:26:42.109Z,-4.60
2022-12-16T06:29:28.530Z,-4.60
2022-12-16T06:32:13.807Z,-4.80
2022-12-16T06:34:59.358Z,-4.80
2022-12-16T06:37:44.788Z,-5.30
2022-12-16T06:40:29.969Z,-5.00
2022-12-16T06:43:15.296Z,-5.00
2022-12-16T06:46:00.759Z,-5.10
2022-12-16T06:48:46.005Z,-5.10
2022-12-16T06:51:31.606Z,-5.00
2022-12-16T06:54:16.877Z,-5.20
2022-12-16T06:57:02.428Z,-5.20
2022-12-16T06:59:47.639Z,-5.10
2022-12-16T07:02:33.365Z,-5.20
2022-12-16T07:05:18.699Z,-5.30
2022-12-16T07:08:10.942Z,-5.30
2022-12-16T07:11:03.456Z,-5.30
2022-12-16T07:13:58.933Z,-5.40
2022-12-16T07:16:44.465Z,-5.30
2022-12-16T07:19:29.803Z,-5.50
2022-12-16T07:22:15.197Z,-5.40
2022-12-16T07:25:00.594Z,-5.40
2022-12-16T07:27:46.157Z,-5.70
2022-12-16T07:30:31.708Z,-5.70
2022-12-16T07:33:17.100Z,-5.60
2022-12-16T07:36:02.492Z,-5.70
2022-12-16T07:38:47.974Z,-5.60
2022-12-16T07:41:33.523Z,-5.60
2022-12-16T07:44:18.705Z,-5.60
2022-12-16T07:47:04.227Z,-5.80
2022-12-16T07:49:49.607Z,-5.60
2022-12-16T07:52:35.157Z,-5.70
2022-12-16T07:55:20.916Z,-5.70
2022-12-16T07:58:10.260Z,-5.80
2022-12-16T08:00:55.888Z,-5.70
2022-12-16T08:03:41.773Z,-5.70
2022-12-16T08:06:27.072Z,-5.70
2022-12-16T08:09:12.704Z,-5.70
2022-12-16T08:11:57.955Z,-5.80
2022-12-16T08:14:43.405Z,-5.90
2022-12-16T08:17:28.881Z,-5.80
2022-12-16T08:20:14.218Z,-5.80
2022-12-16T08:22:59.801Z,-5.70
2022-12-16T08:25:45.207Z,-5.70
2022-12-16T08:28:30.707Z,-5.50
2022-12-16T08:31:16.221Z,-5.40
2022-12-16T08:34:01.434Z,-5.30
2022-12-16T08:36:46.947Z,-5.30
2022-12-16T08:39:32.118Z,-5.20
2022-12-16T08:42:17.323Z,-5.10
2022-12-16T08:45:02.672Z,-5.10
2022-12-16T08:47:48.261Z,-4.90
2022-12-16T08:50:33.978Z,-4.80
2022-12-16T08:53:19.020Z,-4.80
2022-12-16T08:56:04.502Z,-4.60
2022-12-16T08:58:49.915Z,-4.50
2022-12-16T09:01:35.593Z,-4.50
2022-12-16T09:04:21.058Z,-4.40
2022-12-16T09:07:06.583Z,-4.30
2022-12-16T09:09:52.102Z,-4.10
2022-12-16T09:12:48.120Z,-4.00
2022-12-16T09:15:33.829Z,-3.90
2022-12-16T09:18:19.242Z,-3.70
2022-12-16T09:21:04.603Z,-3.50
2022-12-16T09:23:50.004Z,-3.50
2022-12-16T09:26:35.642Z,-3.30
2022-12-16T09:29:20.913Z,-3.30
2022-12-16T09:32:06.422Z,-3.30
2022-12-16T09:34:52.105Z,-3.20
2022-12-16T09:37:38.290Z,-3.00
2022-12-16T09:40:24.636Z,-3.00
2022-12-16T09:43:43.127Z,-2.90
2022-12-16T09:47:08.838Z,-2.70
2022-12-16T09:50:00.363Z,-2.50
2022-12-16T09:52:46.588Z,-2.30
2022-12-16T09:55:42.264Z,-2.10
2022-12-16T09:58:29.919Z,-2.00
2022-12-16T10:01:16.267Z,-2.00
2022-12-16T10:04:01.993Z,-1.70
2022-12-16T10:07:00.812Z,-1.50
2022-12-16T10:10:06.670Z,-1.50
2022-12-16T10:13:15.965Z,-1.40
2022-12-16T10:16:13.116Z,-1.20
2022-12-16T10:19:29.186Z,-1.10
2022-12-16T10:22:38.397Z,-1.00
2022-12-16T10:25:41.820Z,-0.80
2022-12-16T10:28:37.976Z,-0.60
2022-12-16T10:31:34.596Z,-0.60
2022-12-16T10:34:20.527Z,-0.40
2022-12-16T10:37:12.393Z,-0.40
2022-12-16T10:40:04.881Z,-0.60
2022-12-16T10:42:59.160Z,-0.40
2022-12-16T10:45:50.522Z,0.00
2022-12-16T10:48:55.005Z,0.40
2022-12-16T10:51:43.336Z,0.40
2022-12-16T10:55:09.683Z,0.30
2022-12-16T10:58:34.115Z,0.10
2022-12-16T11:01:38.466Z,0.00
2022-12-16T11:04:50.641Z,-0.10
2022-12-16T11:08:08.559Z,-0.20
2022-12-16T11:10:56.947Z,-0.20
2022-12-16T11:13:46.466Z,-0.20
2022-12-16T11:16:44.288Z,-0.30
2022-12-16T11:19:42.099Z,-0.30
2022-12-16T11:22:32.885Z,-0.30
2022-12-16T11:25:38.018Z,-0.40
2022-12-16T11:28:30.669Z,-0.40
2022-12-16T11:31:19.357Z,-0.40
2022-12-16T11:34:05.566Z,-0.40
2022-12-16T11:36:51.461Z,-0.20
2022-12-16T11:39:39.799Z,0.10
2022-12-16T11:42:29.295Z,0.40
2022-12-16T11:45:17.204Z,0.80
2022-12-16T11:48:14.224Z,1.10
2022-12-16T11:51:07.669Z,1.20
2022-12-16T11:54:10.911Z,1.40
2022-12-16T11:57:01.213Z,1.60
2022-12-16T11:59:58.992Z,1.60
2022-12-16T12:02:55.961Z,2.00
2022-12-16T12:05:57.431Z,1.90
2022-12-16T12:09:14.854Z,2.20
2022-12-16T12:12:12.568Z,1.90
2022-12-16T12:15:16.899Z,1.80
2022-12-16T12:18:12.694Z,1.60
2022-12-16T12:21:17.193Z,1.40
2022-12-16T12:24:08.438Z,1.20
2022-12-16T12:26:58.922Z,1.00
2022-12-16T12:29:57.444Z,1.00
2022-12-16T12:32:55.532Z,0.90
2022-12-16T12:35:46.986Z,0.90
2022-12-16T12:39:11.983Z,0.80
2022-12-16T12:42:03.008Z,0.60
2022-12-16T12:45:22.578Z,0.60
2022-12-16T12:48:34.084Z,0.40
2022-12-16T12:51:26.260Z,0.40
2022-12-16T12:54:51.127Z,0.40
2022-12-16T12:57:41.389Z,0.20
2022-12-16T13:00:35.720Z,0.20
2022-12-16T13:03:37.743Z,0.20
2022-12-16T13:06:24.532Z,0.00
2022-12-16T13:09:09.744Z,-0.10
2022-12-16T13:11:56.742Z,0.10
2022-12-16T13:14:51.306Z,0.30
2022-12-16T13:17:41.431Z,0.20
2022-12-16T13:20:51.643Z,0.20
2022-12-16T13:23:52.008Z,0.30
2022-12-16T13:26:40.302Z,0.20
2022-12-16T13:29:47.173Z,0.30
2022-12-16T13:32:44.514Z,0.30
2022-12-16T13:35:29.907Z,0.30
2022-12-16T13:38:20.413Z,0.00
2022-12-16T13:41:20.345Z,0.00
2022-12-16T13:44:05.937Z,0.30
2022-12-16T13:47:01.975Z,0.30
2022-12-16T13:49:56.263Z,0.40
2022-12-16T13:52:54.136Z,0.40
2022-12-16T13:56:11.740Z,0.40
2022-12-16T13:59:01.411Z,0.30
2022-12-16T14:01:52.463Z,0.40
2022-12-16T14:04:46.023Z,0.30
2022-12-16T14:07:35.043Z,0.40
2022-12-16T14:10:20.581Z,0.30
2022-12-16T14:13:23.445Z,0.40
2022-12-16T14:16:20.702Z,0.50
2022-12-16T14:19:22.254Z,0.60
2022-12-16T14:22:15.253Z,0.50
2022-12-16T14:25:08.738Z,0.50
2022-12-16T14:27:54.095Z,0.50
2022-12-16T14:30:44.736Z,0.50
2022-12-16T14:33:41.550Z,0.60
2022-12-16T14:36:44.612Z,0.50
2022-12-16T14:39:41.493Z,0.50
2022-12-16T14:42:45.791Z,0.50
2022-12-16T14:46:06.619Z,0.60
2022-12-16T14:48:57.472Z,0.50
2022-12-16T14:52:04.019Z,0.50
2022-12-16T14:54:52.481Z,0.50
2022-12-16T14:57:45.628Z,0.40
2022-12-16T15:00:42.956Z,0.30
2022-12-16T15:03:58.814Z,0.30
2022-12-16T15:06:59.285Z,0.30
2022-12-16T15:09:49.875Z,0.20
2022-12-16T15:12:39.392Z,0.20
2022-12-16T15:15:31.700Z,0.20
2022-12-16T15:18:19.348Z,0.10
2022-12-16T15:21:13.624Z,0.10
2022-12-16T15:24:02.133Z,0.00
2022-12-16T15:26:50.191Z,0.00
2022-12-16T15:29:54.417Z,0.00
2022-12-16T15:32:45.809Z,-0.10
2022-12-16T15:35:44.790Z,-0.10
2022-12-16T15:38:53.471Z,-0.10
2022-12-16T15:41:45.740Z,-0.30
2022-12-16T15:44:46.227Z,-0.30
2022-12-16T15:47:57.944Z,-0.30
2022-12-16T15:50:46.430Z,-0.30
2022-12-16T15:53:49.831Z,-0.30
2022-12-16T15:57:02.483Z,-0.30
2022-12-16T15:59:51.058Z,-0.40
2022-12-16T16:02:48.456Z,-0.60
2022-12-16T16:05:40.104Z,-0.40
2022-12-16T16:08:25.650Z,-0.40
2022-12-16T16:11:11.098Z,-0.40
2022-12-16T16:14:01.018Z,-0.60
2022-12-16T16:16:49.930Z,-0.60
2022-12-16T16:19:41.012Z,-0.60
2022-12-16T16:22:35.167Z,-0.70
2022-12-16T16:25:20.444Z,-0.80
2022-12-16T16:28:06.232Z,-0.80
2022-12-16T16:30:51.896Z,-0.60
2022-12-16T16:33:37.515Z,-0.60
2022-12-16T16:36:32.370Z,-0.60
2022-12-16T16:39:17.742Z,-0.70
2022-12-16T16:42:07.413Z,-0.70
2022-12-16T16:44:52.962Z,-0.80
2022-12-16T16:47:38.279Z,-0.80
2022-12-16T16:50:24.641Z,-0.80
2022-12-16T16:53:10.125Z,-0.90
2022-12-16T16:55:55.315Z,-0.90
2022-12-16T16:58:52.364Z,-0.90
2022-12-16T17:01:38.085Z,-1.00
2022-12-16T17:04:23.797Z,-1.00
2022-12-16T17:07:09.065Z,-1.00
2022-12-16T17:09:54.528Z,-1.00
2022-12-16T17:12:47.854Z,-1.20
2022-12-16T17:15:44.924Z,-1.20
2022-12-16T17:18:30.285Z,-1.30
2022-12-16T17:21:15.752Z,-1.50
2022-12-16T17:24:01.235Z,-1.70
2022-12-16T17:26:46.793Z,-1.70
2022-12-16T17:29:43.283Z,-1.60
2022-12-16T17:32:29.787Z,-1.60
2022-12-16T17:35:15.943Z,-1.60
2022-12-16T17:38:02.139Z,-1.90
2022-12-16T17:40:48.121Z,-1.90
2022-12-16T17:43:34.117Z,-1.80
2022-12-16T17:46:25.272Z,-1.80
2022-12-16T17:49:12.183Z,-2.10
2022-12-16T17:51:57.742Z,-2.10
2022-12-16T17:54:43.464Z,-2.20
2022-12-16T17:57:28.807Z,-2.30
2022-12-16T18:00:14.222Z,-2.20
2022-12-16T18:02:59.960Z,-2.50
2022-12-16T18:05:45.658Z,-2.40
2022-12-16T18:08:31.066Z,-2.70
2022-12-16T18:11:17.673Z,-2.60
2022-12-16T18:14:03.129Z,-2.80
2022-12-16T18:16:48.770Z,-2.80
2022-12-16T18:19:35.209Z,-2.90
2022-12-16T18:22:21.248Z,-2.90
2022-12-16T18:25:06.709Z,-3.00
2022-12-16T18:27:52.334Z,-3.30
2022-12-16T18:30:37.775Z,-3.20
2022-12-16T18:33:23.331Z,-3.00
2022-12-16T18:36:08.695Z,-3.40
2022-12-16T18:38:54.165Z,-3.50
2022-12-16T18:41:40.894Z,-3.60
2022-12-16T18:44:30.054Z,-3.70
2022-12-16T18:47:15.422Z,-3.60
2022-12-16T18:50:00.795Z,-3.80
2022-12-16T18:52:46.753Z,-3.90
2022-12-16T18:55:32.409Z,-4.00
2022-12-16T18:58:42.802Z,-3.90
2022-12-16T19:01:28.500Z,-3.90
2022-12-16T19:04:14.959Z,-3.90
2022-12-16T19:07:01.192Z,-3.90
2022-12-16T19:09:46.358Z,-4.20
2022-12-16T19:12:31.846Z,-4.10
2022-12-16T19:15:17.303Z,-4.50
2022-12-16T19:18:02.780Z,-4.40
2022-12-16T19:20:48.063Z,-4.40
2022-12-16T19:23:34.416Z,-4.50
2022-12-16T19:26:20.769Z,-4.50
2022-12-16T19:29:06.307Z,-4.50
2022-12-16T19:31:51.881Z,-4.60
2022-12-16T19:34:37.576Z,-4.70
2022-12-16T19:37:24.171Z,-4.60
2022-12-16T19:40:09.712Z,-4.80
2022-12-16T19:42:55.838Z,-4.80
2022-12-16T19:45:41.270Z,-5.00
2022-12-16T19:48:26.756Z,-5.10
2022-12-16T19:51:19.975Z,-5.10
2022-12-16T19:54:05.512Z,-5.00
2022-12-16T19:56:51.781Z,-5.10
2022-12-16T19:59:38.343Z,-5.00
2022-12-16T20:02:24.937Z,-5.10
2022-12-16T20:05:10.209Z,-5.10
2022-12-16T20:08:15.518Z,-5.20
2022-12-16T20:11:01.145Z,-5.30
2022-12-16T20:13:46.674Z,-5.40
2022-12-16T20:16:32.211Z,-5.40
2022-12-16T20:19:17.578Z,-5.50
2022-12-16T20:22:06.797Z,-5.60
2022-12-16T20:27:58.813Z,-5.60
2022-12-16T20:30:44.145Z,-5.70
2022-12-16T20:33:34.220Z,-5.80
2022-12-16T20:36:21.982Z,-6.00
2022-12-16T20:39:07.452Z,-5.80
2022-12-16T20:41:56.162Z,-5.80
2022-12-16T20:44:42.027Z,-5.80
2022-12-16T20:47:27.316Z,-5.80
2022-12-16T20:50:12.794Z,-5.80
2022-12-16T20:52:58.244Z,-5.90
2022-12-16T20:55:43.764Z,-5.90
2022-12-16T20:58:29.257Z,-6.00
2022-12-16T21:01:14.990Z,-6.00
2022-12-16T21:04:00.381Z,-6.10
2022-12-16T21:06:46.005Z,-6.00
2022-12-16T21:09:31.539Z,-6.10
2022-12-16T21:12:17.172Z,-6.10
2022-12-16T21:15:02.541Z,-6.20
2022-12-16T21:17:47.897Z,-6.20
2022-12-16T21:20:33.312Z,-6.40
2022-12-16T21:23:23.937Z,-6.30
2022-12-16T21:26:09.370Z,-6.30
2022-12-16T21:32:00.592Z,-6.30
2022-12-16T21:34:45.652Z,-6.40
2022-12-16T21:37:31.236Z,-6.40
2022-12-16T21:40:16.347Z,-6.40
2022-12-16T21:43:01.727Z,-6.40
2022-12-16T21:45:47.318Z,-6.50
2022-12-16T21:48:32.808Z,-6.60
2022-12-16T21:51:18.469Z,-6.60
2022-12-16T21:57:09.654Z,-6.70
2022-12-16T22:03:00.504Z,-6.90
2022-12-16T22:05:45.911Z,-6.80
2022-12-16T22:08:31.223Z,-6.80
2022-12-16T22:11:16.870Z,-6.80
2022-12-16T22:14:02.349Z,-6.80
2022-12-16T22:16:47.597Z,-6.80
2022-12-16T22:19:32.758Z,-6.80
2022-12-16T22:22:18.350Z,-6.80
2022-12-16T22:25:03.599Z,-6.90
2022-12-16T22:27:49.033Z,-6.90
2022-12-16T22:30:34.455Z,-7.00
2022-12-16T22:33:19.681Z,-6.90
2022-12-16T22:36:04.874Z,-7.10
2022-12-16T22:36:22.200Z,-6.70
2022-12-16T22:38:52.004Z,-7.10
2022-12-16T22:41:37.388Z,-7.10
2022-12-16T22:44:23.089Z,-7.10
2022-12-16T22:47:08.617Z,-7.20
2022-12-16T22:49:56.063Z,-7.10
2022-12-16T22:52:41.629Z,-7.10
2022-12-16T22:55:26.985Z,-7.30
2022-12-16T22:58:13.276Z,-7.20
2022-12-16T23:00:58.380Z,-7.10
2022-12-16T23:03:44.318Z,-7.20
2022-12-16T23:06:30.502Z,-7.20
2022-12-16T23:09:17.489Z,-7.30
2022-12-16T23:12:02.983Z,-7.40
2022-12-16T23:14:48.137Z,-7.40
2022-12-16T23:17:33.838Z,-7.40
2022-12-16T23:20:19.214Z,-7.50
2022-12-16T23:23:04.658Z,-7.50
2022-12-16T23:25:50.253Z,-7.50
2022-12-16T23:28:35.658Z,-7.50
2022-12-16T23:31:20.975Z,-7.40
2022-12-16T23:34:06.418Z,-7.50
2022-12-16T23:36:52.122Z,-7.50
2022-12-16T23:39:38.618Z,-7.50
2022-12-16T23:42:23.967Z,-7.60
2022-12-16T23:45:09.747Z,-7.60
2022-12-16T23:47:55.341Z,-7.60
2022-12-16T23:50:41.541Z,-7.80
2022-12-16T23:53:29.072Z,-7.60
2022-12-16T23:56:16.782Z,-7.70
2022-12-16T23:59:02.380Z,-7.70
